sensor_id;sensor_type;location;lat;lon;timestamp;P1;durP1;ratioP1;P2;durP2;ratioP2
44558;SDS011;30270;40.238;18.256;2022-10-18T00:00:59;27.92;;;20.48;;
44558;SDS011;30270;40.238;18.256;2022-10-18T00:03:28;29.52;;;20.85;;
44558;SDS011;30270;40.238;18.256;2022-10-18T00:05:56;32.53;;;19.48;;
44558;SDS011;30270;40.238;18.256;2022-10-18T00:08:24;28.23;;;19.02;;
44558;SDS011;30270;40.238;18.256;2022-10-18T00:10:53;29.75;;;17.83;;
44558;SDS011;30270;40.238;18.256;2022-10-18T00:13:21;30.42;;;19.42;;
44558;SDS011;30270;40.238;18.256;2022-10-18T00:15:51;27.88;;;18.55;;
44558;SDS011;30270;40.238;18.256;2022-10-18T00:18:21;30.10;;;20.80;;
44558;SDS011;30270;40.238;18.256;2022-10-18T00:20:56;34.10;;;20.00;;
44558;SDS011;30270;40.238;18.256;2022-10-18T00:23:33;27.55;;;18.35;;
44558;SDS011;30270;40.238;18.256;2022-10-18T00:26:03;33.50;;;20.02;;
44558;SDS011;30270;40.238;18.256;2022-10-18T00:28:31;29.80;;;20.35;;
44558;SDS011;30270;40.238;18.256;2022-10-18T00:31:08;30.50;;;20.77;;
44558;SDS011;30270;40.238;18.256;2022-10-18T00:33:46;29.63;;;19.52;;
44558;SDS011;30270;40.238;18.256;2022-10-18T00:36:17;29.45;;;18.88;;
44558;SDS011;30270;40.238;18.256;2022-10-18T00:38:47;30.80;;;19.45;;
44558;SDS011;30270;40.238;18.256;2022-10-18T00:41:16;30.80;;;21.38;;
44558;SDS011;30270;40.238;18.256;2022-10-18T00:44:01;26.85;;;18.77;;
44558;SDS011;30270;40.238;18.256;2022-10-18T00:46:33;31.55;;;19.58;;
44558;SDS011;30270;40.238;18.256;2022-10-18T00:49:06;29.95;;;18.70;;
44558;SDS011;30270;40.238;18.256;2022-10-18T00:51:47;27.23;;;19.20;;
44558;SDS011;30270;40.238;18.256;2022-10-18T00:54:17;28.50;;;18.27;;
44558;SDS011;30270;40.238;18.256;2022-10-18T00:56:46;28.27;;;17.95;;
44558;SDS011;30270;40.238;18.256;2022-10-18T00:59:14;30.30;;;22.88;;
44558;SDS011;30270;40.238;18.256;2022-10-18T01:01:44;32.13;;;19.77;;
44558;SDS011;30270;40.238;18.256;2022-10-18T01:04:12;30.60;;;19.65;;
44558;SDS011;30270;40.238;18.256;2022-10-18T01:09:40;31.17;;;20.38;;
44558;SDS011;30270;40.238;18.256;2022-10-18T01:31:46;28.40;;;17.75;;
44558;SDS011;30270;40.238;18.256;2022-10-18T01:34:19;28.80;;;18.08;;
44558;SDS011;30270;40.238;18.256;2022-10-18T01:36:50;27.42;;;18.17;;
44558;SDS011;30270;40.238;18.256;2022-10-18T01:39:22;30.08;;;19.65;;
44558;SDS011;30270;40.238;18.256;2022-10-18T01:41:54;30.70;;;18.88;;
44558;SDS011;30270;40.238;18.256;2022-10-18T01:44:25;26.30;;;17.80;;
44558;SDS011;30270;40.238;18.256;2022-10-18T01:46:55;28.83;;;19.08;;
44558;SDS011;30270;40.238;18.256;2022-10-18T01:49:24;29.80;;;18.25;;
44558;SDS011;30270;40.238;18.256;2022-10-18T01:51:52;30.17;;;17.98;;
44558;SDS011;30270;40.238;18.256;2022-10-18T01:54:22;28.25;;;17.60;;
44558;SDS011;30270;40.238;18.256;2022-10-18T01:56:57;30.13;;;19.73;;
44558;SDS011;30270;40.238;18.256;2022-10-18T02:00:00;27.52;;;18.77;;
44558;SDS011;30270;40.238;18.256;2022-10-18T02:02:39;30.20;;;19.95;;
44558;SDS011;30270;40.238;18.256;2022-10-18T02:08:03;29.40;;;19.55;;
44558;SDS011;30270;40.238;18.256;2022-10-18T02:10:53;31.42;;;20.77;;
44558;SDS011;30270;40.238;18.256;2022-10-18T02:13:37;31.98;;;20.77;;
44558;SDS011;30270;40.238;18.256;2022-10-18T02:16:31;30.77;;;18.58;;
44558;SDS011;30270;40.238;18.256;2022-10-18T02:19:08;32.28;;;20.38;;
44558;SDS011;30270;40.238;18.256;2022-10-18T02:21:48;31.63;;;19.13;;
44558;SDS011;30270;40.238;18.256;2022-10-18T02:24:18;31.30;;;18.73;;
44558;SDS011;30270;40.238;18.256;2022-10-18T02:26:49;30.83;;;20.02;;
44558;SDS011;30270;40.238;18.256;2022-10-18T02:29:17;31.65;;;20.98;;
44558;SDS011;30270;40.238;18.256;2022-10-18T02:31:46;31.50;;;20.75;;
44558;SDS011;30270;40.238;18.256;2022-10-18T02:34:23;29.75;;;19.70;;
44558;SDS011;30270;40.238;18.256;2022-10-18T02:37:05;33.42;;;19.45;;
44558;SDS011;30270;40.238;18.256;2022-10-18T02:39:34;30.40;;;21.00;;
44558;SDS011;30270;40.238;18.256;2022-10-18T02:42:05;31.95;;;19.90;;
44558;SDS011;30270;40.238;18.256;2022-10-18T02:44:36;32.80;;;19.52;;
44558;SDS011;30270;40.238;18.256;2022-10-18T02:47:05;32.15;;;21.67;;
44558;SDS011;30270;40.238;18.256;2022-10-18T02:49:34;29.17;;;19.95;;
44558;SDS011;30270;40.238;18.256;2022-10-18T02:52:02;32.50;;;21.77;;
44558;SDS011;30270;40.238;18.256;2022-10-18T02:54:30;28.13;;;19.35;;
44558;SDS011;30270;40.238;18.256;2022-10-18T02:56:58;32.15;;;21.67;;
44558;SDS011;30270;40.238;18.256;2022-10-18T02:59:25;32.60;;;20.25;;
44558;SDS011;30270;40.238;18.256;2022-10-18T03:01:53;30.38;;;18.90;;
44558;SDS011;30270;40.238;18.256;2022-10-18T03:04:21;24.67;;;16.55;;
44558;SDS011;30270;40.238;18.256;2022-10-18T03:06:48;30.38;;;18.13;;
44558;SDS011;30270;40.238;18.256;2022-10-18T03:09:16;28.98;;;18.17;;
44558;SDS011;30270;40.238;18.256;2022-10-18T03:11:43;23.90;;;15.55;;
44558;SDS011;30270;40.238;18.256;2022-10-18T03:14:11;24.67;;;17.10;;
44558;SDS011;30270;40.238;18.256;2022-10-18T03:16:39;21.98;;;14.15;;
44558;SDS011;30270;40.238;18.256;2022-10-18T03:19:07;26.67;;;17.35;;
44558;SDS011;30270;40.238;18.256;2022-10-18T03:21:35;23.70;;;15.70;;
44558;SDS011;30270;40.238;18.256;2022-10-18T03:24:02;26.00;;;17.67;;
44558;SDS011;30270;40.238;18.256;2022-10-18T03:26:30;22.15;;;14.80;;
44558;SDS011;30270;40.238;18.256;2022-10-18T03:28:58;21.08;;;15.95;;
44558;SDS011;30270;40.238;18.256;2022-10-18T03:31:25;27.85;;;18.02;;
44558;SDS011;30270;40.238;18.256;2022-10-18T03:33:53;23.98;;;16.73;;
44558;SDS011;30270;40.238;18.256;2022-10-18T03:36:21;28.98;;;18.80;;
44558;SDS011;30270;40.238;18.256;2022-10-18T03:38:48;25.77;;;17.30;;
44558;SDS011;30270;40.238;18.256;2022-10-18T03:41:16;25.02;;;17.38;;
44558;SDS011;30270;40.238;18.256;2022-10-18T03:43:44;25.60;;;16.60;;
44558;SDS011;30270;40.238;18.256;2022-10-18T03:46:11;24.80;;;16.17;;
44558;SDS011;30270;40.238;18.256;2022-10-18T03:48:39;25.25;;;16.38;;
44558;SDS011;30270;40.238;18.256;2022-10-18T03:51:07;26.75;;;17.48;;
44558;SDS011;30270;40.238;18.256;2022-10-18T03:53:35;28.73;;;18.88;;
44558;SDS011;30270;40.238;18.256;2022-10-18T03:56:03;29.35;;;18.30;;
44558;SDS011;30270;40.238;18.256;2022-10-18T03:58:31;28.98;;;18.45;;
44558;SDS011;30270;40.238;18.256;2022-10-18T04:00:59;28.25;;;19.42;;
44558;SDS011;30270;40.238;18.256;2022-10-18T04:03:27;30.35;;;20.00;;
44558;SDS011;30270;40.238;18.256;2022-10-18T04:05:54;29.70;;;20.67;;
44558;SDS011;30270;40.238;18.256;2022-10-18T04:08:23;29.58;;;20.10;;
44558;SDS011;30270;40.238;18.256;2022-10-18T04:10:50;29.98;;;20.08;;
44558;SDS011;30270;40.238;18.256;2022-10-18T04:13:18;36.35;;;20.98;;
44558;SDS011;30270;40.238;18.256;2022-10-18T04:15:46;31.70;;;20.80;;
44558;SDS011;30270;40.238;18.256;2022-10-18T04:18:13;27.70;;;19.20;;
44558;SDS011;30270;40.238;18.256;2022-10-18T04:20:41;29.08;;;19.10;;
44558;SDS011;30270;40.238;18.256;2022-10-18T04:23:09;31.02;;;17.85;;
44558;SDS011;30270;40.238;18.256;2022-10-18T04:25:37;31.45;;;20.48;;
44558;SDS011;30270;40.238;18.256;2022-10-18T04:28:05;30.35;;;19.27;;
44558;SDS011;30270;40.238;18.256;2022-10-18T04:30:33;26.83;;;19.08;;
44558;SDS011;30270;40.238;18.256;2022-10-18T04:33:02;31.75;;;19.83;;
44558;SDS011;30270;40.238;18.256;2022-10-18T04:35:30;31.83;;;19.85;;
44558;SDS011;30270;40.238;18.256;2022-10-18T04:37:58;36.20;;;21.60;;
44558;SDS011;30270;40.238;18.256;2022-10-18T04:40:29;32.33;;;18.98;;
44558;SDS011;30270;40.238;18.256;2022-10-18T04:43:03;31.00;;;20.95;;
44558;SDS011;30270;40.238;18.256;2022-10-18T04:45:34;31.17;;;20.13;;
44558;SDS011;30270;40.238;18.256;2022-10-18T04:48:05;30.60;;;20.30;;
44558;SDS011;30270;40.238;18.256;2022-10-18T04:50:34;31.00;;;19.33;;
44558;SDS011;30270;40.238;18.256;2022-10-18T04:53:12;29.38;;;20.00;;
44558;SDS011;30270;40.238;18.256;2022-10-18T04:55:49;28.98;;;20.02;;
44558;SDS011;30270;40.238;18.256;2022-10-18T04:58:20;31.23;;;20.20;;
44558;SDS011;30270;40.238;18.256;2022-10-18T05:00:49;31.50;;;20.30;;
44558;SDS011;30270;40.238;18.256;2022-10-18T05:03:17;29.77;;;18.50;;
44558;SDS011;30270;40.238;18.256;2022-10-18T05:05:45;32.38;;;19.83;;
44558;SDS011;30270;40.238;18.256;2022-10-18T05:08:26;29.70;;;18.92;;
44558;SDS011;30270;40.238;18.256;2022-10-18T05:10:55;29.48;;;19.23;;
44558;SDS011;30270;40.238;18.256;2022-10-18T05:13:22;35.22;;;20.30;;
44558;SDS011;30270;40.238;18.256;2022-10-18T05:15:50;34.53;;;20.52;;
44558;SDS011;30270;40.238;18.256;2022-10-18T05:18:18;31.77;;;21.33;;
44558;SDS011;30270;40.238;18.256;2022-10-18T05:20:46;34.75;;;19.00;;
44558;SDS011;30270;40.238;18.256;2022-10-18T05:23:14;34.03;;;20.77;;
44558;SDS011;30270;40.238;18.256;2022-10-18T05:25:42;35.22;;;19.17;;
44558;SDS011;30270;40.238;18.256;2022-10-18T05:28:10;29.13;;;18.70;;
44558;SDS011;30270;40.238;18.256;2022-10-18T05:30:53;35.50;;;19.65;;
44558;SDS011;30270;40.238;18.256;2022-10-18T05:33:20;29.52;;;20.23;;
44558;SDS011;30270;40.238;18.256;2022-10-18T05:35:48;34.30;;;20.52;;
44558;SDS011;30270;40.238;18.256;2022-10-18T05:38:16;25.63;;;18.65;;
44558;SDS011;30270;40.238;18.256;2022-10-18T05:40:45;29.05;;;18.95;;
44558;SDS011;30270;40.238;18.256;2022-10-18T05:43:12;30.30;;;19.80;;
44558;SDS011;30270;40.238;18.256;2022-10-18T05:45:45;29.48;;;19.20;;
44558;SDS011;30270;40.238;18.256;2022-10-18T05:48:14;26.17;;;18.45;;
44558;SDS011;30270;40.238;18.256;2022-10-18T05:50:43;30.98;;;19.65;;
44558;SDS011;30270;40.238;18.256;2022-10-18T05:53:11;26.85;;;17.10;;
44558;SDS011;30270;40.238;18.256;2022-10-18T05:56:00;27.10;;;16.00;;
44558;SDS011;30270;40.238;18.256;2022-10-18T05:58:28;25.13;;;17.27;;
44558;SDS011;30270;40.238;18.256;2022-10-18T06:00:57;28.75;;;18.60;;
44558;SDS011;30270;40.238;18.256;2022-10-18T06:03:26;28.67;;;16.85;;
44558;SDS011;30270;40.238;18.256;2022-10-18T06:08:31;26.27;;;16.98;;
44558;SDS011;30270;40.238;18.256;2022-10-18T06:11:10;23.60;;;15.02;;
44558;SDS011;30270;40.238;18.256;2022-10-18T06:13:40;20.80;;;14.15;;
44558;SDS011;30270;40.238;18.256;2022-10-18T06:16:09;25.85;;;16.02;;
44558;SDS011;30270;40.238;18.256;2022-10-18T06:18:38;26.00;;;17.63;;
44558;SDS011;30270;40.238;18.256;2022-10-18T06:21:07;24.48;;;16.08;;
44558;SDS011;30270;40.238;18.256;2022-10-18T06:23:35;24.40;;;15.55;;
44558;SDS011;30270;40.238;18.256;2022-10-18T06:26:04;28.88;;;18.20;;
44558;SDS011;30270;40.238;18.256;2022-10-18T06:28:34;25.17;;;16.45;;
44558;SDS011;30270;40.238;18.256;2022-10-18T06:31:03;27.83;;;15.68;;
44558;SDS011;30270;40.238;18.256;2022-10-18T06:33:32;24.77;;;16.77;;
44558;SDS011;30270;40.238;18.256;2022-10-18T06:36:04;27.45;;;17.83;;
44558;SDS011;30270;40.238;18.256;2022-10-18T06:38:33;28.80;;;16.67;;
44558;SDS011;30270;40.238;18.256;2022-10-18T06:41:03;25.63;;;15.18;;
44558;SDS011;30270;40.238;18.256;2022-10-18T06:43:32;20.70;;;14.52;;
44558;SDS011;30270;40.238;18.256;2022-10-18T06:46:00;25.95;;;15.63;;
44558;SDS011;30270;40.238;18.256;2022-10-18T06:48:31;21.05;;;14.13;;
44558;SDS011;30270;40.238;18.256;2022-10-18T06:51:05;24.27;;;15.00;;
44558;SDS011;30270;40.238;18.256;2022-10-18T06:53:35;22.35;;;16.30;;
44558;SDS011;30270;40.238;18.256;2022-10-18T06:56:07;22.80;;;15.80;;
44558;SDS011;30270;40.238;18.256;2022-10-18T06:58:39;22.73;;;14.73;;
44558;SDS011;30270;40.238;18.256;2022-10-18T07:01:08;19.88;;;14.15;;
44558;SDS011;30270;40.238;18.256;2022-10-18T07:03:38;22.30;;;13.55;;
44558;SDS011;30270;40.238;18.256;2022-10-18T07:06:06;18.70;;;13.43;;
44558;SDS011;30270;40.238;18.256;2022-10-18T07:08:36;22.40;;;14.48;;
44558;SDS011;30270;40.238;18.256;2022-10-18T07:11:05;23.48;;;14.85;;
44558;SDS011;30270;40.238;18.256;2022-10-18T07:13:35;20.40;;;14.02;;
44558;SDS011;30270;40.238;18.256;2022-10-18T07:18:33;24.55;;;14.85;;
44558;SDS011;30270;40.238;18.256;2022-10-18T07:21:07;20.45;;;13.60;;
44558;SDS011;30270;40.238;18.256;2022-10-18T07:23:39;20.87;;;13.63;;
44558;SDS011;30270;40.238;18.256;2022-10-18T07:26:21;24.02;;;14.80;;
44558;SDS011;30270;40.238;18.256;2022-10-18T07:28:54;19.67;;;13.80;;
44558;SDS011;30270;40.238;18.256;2022-10-18T07:31:25;21.75;;;13.82;;
44558;SDS011;30270;40.238;18.256;2022-10-18T07:33:54;19.77;;;13.68;;
44558;SDS011;30270;40.238;18.256;2022-10-18T07:36:22;19.63;;;13.15;;
44558;SDS011;30270;40.238;18.256;2022-10-18T07:38:51;20.13;;;13.23;;
44558;SDS011;30270;40.238;18.256;2022-10-18T07:41:19;23.85;;;13.60;;
44558;SDS011;30270;40.238;18.256;2022-10-18T07:43:49;18.42;;;11.43;;
44558;SDS011;30270;40.238;18.256;2022-10-18T07:46:18;22.48;;;12.18;;
44558;SDS011;30270;40.238;18.256;2022-10-18T07:48:47;16.67;;;12.07;;
44558;SDS011;30270;40.238;18.256;2022-10-18T07:51:16;18.80;;;12.35;;
44558;SDS011;30270;40.238;18.256;2022-10-18T07:53:47;17.20;;;11.45;;
44558;SDS011;30270;40.238;18.256;2022-10-18T07:56:16;16.45;;;11.38;;
44558;SDS011;30270;40.238;18.256;2022-10-18T07:58:47;18.13;;;11.57;;
44558;SDS011;30270;40.238;18.256;2022-10-18T08:01:20;17.30;;;10.18;;
44558;SDS011;30270;40.238;18.256;2022-10-18T08:03:49;13.93;;;9.45;;
44558;SDS011;30270;40.238;18.256;2022-10-18T08:06:18;19.13;;;11.48;;
44558;SDS011;30270;40.238;18.256;2022-10-18T08:08:47;15.68;;;11.77;;
44558;SDS011;30270;40.238;18.256;2022-10-18T08:11:16;16.42;;;12.32;;
44558;SDS011;30270;40.238;18.256;2022-10-18T08:13:46;16.00;;;10.35;;
44558;SDS011;30270;40.238;18.256;2022-10-18T08:16:16;18.80;;;12.85;;
44558;SDS011;30270;40.238;18.256;2022-10-18T08:18:45;18.85;;;12.32;;
44558;SDS011;30270;40.238;18.256;2022-10-18T08:21:14;20.27;;;11.73;;
44558;SDS011;30270;40.238;18.256;2022-10-18T08:23:42;16.73;;;12.95;;
44558;SDS011;30270;40.238;18.256;2022-10-18T08:26:12;16.38;;;10.73;;
44558;SDS011;30270;40.238;18.256;2022-10-18T08:28:41;18.02;;;10.50;;
44558;SDS011;30270;40.238;18.256;2022-10-18T08:31:12;21.52;;;11.02;;
44558;SDS011;30270;40.238;18.256;2022-10-18T08:33:44;16.77;;;9.55;;
44558;SDS011;30270;40.238;18.256;2022-10-18T08:36:13;15.55;;;10.32;;
44558;SDS011;30270;40.238;18.256;2022-10-18T08:38:42;16.08;;;9.77;;
44558;SDS011;30270;40.238;18.256;2022-10-18T08:41:26;19.13;;;10.15;;
44558;SDS011;30270;40.238;18.256;2022-10-18T08:44:21;17.63;;;10.65;;
44558;SDS011;30270;40.238;18.256;2022-10-18T08:47:02;12.63;;;8.68;;
44558;SDS011;30270;40.238;18.256;2022-10-18T08:49:37;13.13;;;8.85;;
44558;SDS011;30270;40.238;18.256;2022-10-18T08:52:18;13.35;;;8.52;;
44558;SDS011;30270;40.238;18.256;2022-10-18T09:00:22;10.98;;;7.50;;
44558;SDS011;30270;40.238;18.256;2022-10-18T09:21:57;12.45;;;8.15;;
44558;SDS011;30270;40.238;18.256;2022-10-18T09:27:18;11.00;;;7.18;;
44558;SDS011;30270;40.238;18.256;2022-10-18T09:30:08;16.73;;;8.60;;
44558;SDS011;30270;40.238;18.256;2022-10-18T09:36:01;16.55;;;8.60;;
44558;SDS011;30270;40.238;18.256;2022-10-18T09:38:33;9.50;;;6.72;;
44558;SDS011;30270;40.238;18.256;2022-10-18T09:41:24;11.85;;;8.60;;
44558;SDS011;30270;40.238;18.256;2022-10-18T09:44:02;10.27;;;6.72;;
44558;SDS011;30270;40.238;18.256;2022-10-18T09:47:04;13.32;;;7.43;;
44558;SDS011;30270;40.238;18.256;2022-10-18T09:49:44;9.82;;;6.57;;
44558;SDS011;30270;40.238;18.256;2022-10-18T09:52:18;11.98;;;7.13;;
44558;SDS011;30270;40.238;18.256;2022-10-18T09:54:54;8.27;;;6.32;;
44558;SDS011;30270;40.238;18.256;2022-10-18T09:57:31;14.45;;;7.78;;
44558;SDS011;30270;40.238;18.256;2022-10-18T10:00:30;12.98;;;7.70;;
44558;SDS011;30270;40.238;18.256;2022-10-18T10:03:04;13.32;;;7.85;;
44558;SDS011;30270;40.238;18.256;2022-10-18T10:05:37;12.55;;;8.27;;
44558;SDS011;30270;40.238;18.256;2022-10-18T10:08:05;13.70;;;6.88;;
44558;SDS011;30270;40.238;18.256;2022-10-18T10:10:33;9.93;;;6.38;;
44558;SDS011;30270;40.238;18.256;2022-10-18T10:13:05;8.90;;;6.25;;
44558;SDS011;30270;40.238;18.256;2022-10-18T10:15:55;11.20;;;6.47;;
44558;SDS011;30270;40.238;18.256;2022-10-18T10:18:31;11.15;;;7.45;;
44558;SDS011;30270;40.238;18.256;2022-10-18T10:21:02;11.23;;;7.03;;
44558;SDS011;30270;40.238;18.256;2022-10-18T10:23:35;13.85;;;8.80;;
44558;SDS011;30270;40.238;18.256;2022-10-18T10:29:35;11.50;;;7.40;;
44558;SDS011;30270;40.238;18.256;2022-10-18T10:32:14;10.32;;;6.95;;
44558;SDS011;30270;40.238;18.256;2022-10-18T10:34:44;10.82;;;7.75;;
44558;SDS011;30270;40.238;18.256;2022-10-18T10:37:33;13.38;;;7.65;;
44558;SDS011;30270;40.238;18.256;2022-10-18T10:40:05;14.27;;;8.55;;
44558;SDS011;30270;40.238;18.256;2022-10-18T10:45:35;15.30;;;7.97;;
44558;SDS011;30270;40.238;18.256;2022-10-18T10:48:07;11.60;;;8.20;;
44558;SDS011;30270;40.238;18.256;2022-10-18T10:56:12;10.88;;;7.05;;
44558;SDS011;30270;40.238;18.256;2022-10-18T10:58:44;10.73;;;7.50;;
44558;SDS011;30270;40.238;18.256;2022-10-18T11:01:16;14.10;;;9.05;;
44558;SDS011;30270;40.238;18.256;2022-10-18T11:03:49;11.73;;;7.35;;
44558;SDS011;30270;40.238;18.256;2022-10-18T11:09:10;9.82;;;6.97;;
44558;SDS011;30270;40.238;18.256;2022-10-18T11:14:54;11.40;;;6.85;;
44558;SDS011;30270;40.238;18.256;2022-10-18T11:20:26;10.80;;;7.32;;
44558;SDS011;30270;40.238;18.256;2022-10-18T11:23:09;22.67;;;7.57;;
44558;SDS011;30270;40.238;18.256;2022-10-18T11:36:48;8.93;;;6.00;;
44558;SDS011;30270;40.238;18.256;2022-10-18T11:42:23;14.48;;;6.50;;
44558;SDS011;30270;40.238;18.256;2022-10-18T11:45:08;8.57;;;6.00;;
44558;SDS011;30270;40.238;18.256;2022-10-18T11:58:32;11.45;;;6.20;;
44558;SDS011;30270;40.238;18.256;2022-10-18T12:01:23;12.23;;;6.50;;
44558;SDS011;30270;40.238;18.256;2022-10-18T12:06:27;10.95;;;5.18;;
44558;SDS011;30270;40.238;18.256;2022-10-18T12:09:01;17.20;;;6.68;;
44558;SDS011;30270;40.238;18.256;2022-10-18T12:11:51;13.02;;;7.57;;
44558;SDS011;30270;40.238;18.256;2022-10-18T12:14:32;8.88;;;6.63;;
44558;SDS011;30270;40.238;18.256;2022-10-18T12:17:15;15.85;;;6.72;;
44558;SDS011;30270;40.238;18.256;2022-10-18T12:20:29;10.75;;;5.88;;
44558;SDS011;30270;40.238;18.256;2022-10-18T12:22:59;11.30;;;6.63;;
44558;SDS011;30270;40.238;18.256;2022-10-18T12:25:28;8.40;;;5.88;;
44558;SDS011;30270;40.238;18.256;2022-10-18T12:28:07;8.88;;;6.38;;
44558;SDS011;30270;40.238;18.256;2022-10-18T12:33:43;8.32;;;7.05;;
44558;SDS011;30270;40.238;18.256;2022-10-18T12:39:02;8.50;;;5.65;;
44558;SDS011;30270;40.238;18.256;2022-10-18T12:41:36;11.20;;;5.45;;
44558;SDS011;30270;40.238;18.256;2022-10-18T12:44:27;9.57;;;5.80;;
44558;SDS011;30270;40.238;18.256;2022-10-18T12:46:58;7.65;;;5.28;;
44558;SDS011;30270;40.238;18.256;2022-10-18T12:49:32;5.90;;;5.20;;
44558;SDS011;30270;40.238;18.256;2022-10-18T12:52:03;8.07;;;5.55;;
44558;SDS011;30270;40.238;18.256;2022-10-18T12:54:34;7.50;;;4.45;;
44558;SDS011;30270;40.238;18.256;2022-10-18T12:57:05;6.47;;;4.57;;
44558;SDS011;30270;40.238;18.256;2022-10-18T12:59:48;7.93;;;5.50;;
44558;SDS011;30270;40.238;18.256;2022-10-18T13:02:21;6.47;;;4.60;;
44558;SDS011;30270;40.238;18.256;2022-10-18T13:04:52;6.45;;;4.07;;
44558;SDS011;30270;40.238;18.256;2022-10-18T13:15:41;4.95;;;2.97;;
44558;SDS011;30270;40.238;18.256;2022-10-18T13:21:19;7.88;;;3.05;;
44558;SDS011;30270;40.238;18.256;2022-10-18T13:24:09;4.35;;;2.85;;
44558;SDS011;30270;40.238;18.256;2022-10-18T13:26:57;4.43;;;2.55;;
44558;SDS011;30270;40.238;18.256;2022-10-18T13:32:34;3.90;;;2.38;;
44558;SDS011;30270;40.238;18.256;2022-10-18T13:38:24;4.50;;;2.38;;
44558;SDS011;30270;40.238;18.256;2022-10-18T13:41:04;4.20;;;2.35;;
44558;SDS011;30270;40.238;18.256;2022-10-18T13:46:15;3.65;;;2.25;;
44558;SDS011;30270;40.238;18.256;2022-10-18T13:51:32;3.17;;;2.00;;
44558;SDS011;30270;40.238;18.256;2022-10-18T13:54:12;4.63;;;2.65;;
44558;SDS011;30270;40.238;18.256;2022-10-18T13:56:59;3.70;;;2.78;;
44558;SDS011;30270;40.238;18.256;2022-10-18T13:59:36;3.83;;;2.55;;
44558;SDS011;30270;40.238;18.256;2022-10-18T14:05:23;4.03;;;2.58;;
44558;SDS011;30270;40.238;18.256;2022-10-18T14:08:15;5.00;;;2.78;;
44558;SDS011;30270;40.238;18.256;2022-10-18T14:11:10;3.80;;;2.40;;
44558;SDS011;30270;40.238;18.256;2022-10-18T14:24:56;4.38;;;2.53;;
44558;SDS011;30270;40.238;18.256;2022-10-18T14:27:25;3.50;;;2.50;;
44558;SDS011;30270;40.238;18.256;2022-10-18T14:30:14;4.15;;;2.50;;
44558;SDS011;30270;40.238;18.256;2022-10-18T14:32:47;3.95;;;2.80;;
44558;SDS011;30270;40.238;18.256;2022-10-18T14:35:21;4.80;;;2.92;;
44558;SDS011;30270;40.238;18.256;2022-10-18T14:37:59;5.80;;;3.03;;
44558;SDS011;30270;40.238;18.256;2022-10-18T14:45:36;6.10;;;4.28;;
44558;SDS011;30270;40.238;18.256;2022-10-18T14:48:12;7.55;;;5.47;;
44558;SDS011;30270;40.238;18.256;2022-10-18T14:50:43;5.85;;;3.85;;
44558;SDS011;30270;40.238;18.256;2022-10-18T14:53:18;8.07;;;3.90;;
44558;SDS011;30270;40.238;18.256;2022-10-18T14:55:54;7.20;;;3.40;;
44558;SDS011;30270;40.238;18.256;2022-10-18T14:58:26;5.93;;;3.83;;
44558;SDS011;30270;40.238;18.256;2022-10-18T15:00:55;5.47;;;4.15;;
44558;SDS011;30270;40.238;18.256;2022-10-18T15:03:24;7.72;;;4.20;;
44558;SDS011;30270;40.238;18.256;2022-10-18T15:05:57;6.00;;;4.30;;
44558;SDS011;30270;40.238;18.256;2022-10-18T15:08:37;6.55;;;3.78;;
44558;SDS011;30270;40.238;18.256;2022-10-18T15:11:08;5.15;;;3.22;;
44558;SDS011;30270;40.238;18.256;2022-10-18T15:13:49;8.25;;;3.63;;
44558;SDS011;30270;40.238;18.256;2022-10-18T15:16:24;6.47;;;4.15;;
44558;SDS011;30270;40.238;18.256;2022-10-18T15:19:02;5.63;;;3.85;;
44558;SDS011;30270;40.238;18.256;2022-10-18T15:21:33;7.50;;;4.60;;
44558;SDS011;30270;40.238;18.256;2022-10-18T15:29:48;7.22;;;5.53;;
44558;SDS011;30270;40.238;18.256;2022-10-18T15:34:51;8.98;;;5.72;;
44558;SDS011;30270;40.238;18.256;2022-10-18T15:37:31;9.35;;;6.07;;
44558;SDS011;30270;40.238;18.256;2022-10-18T15:43:04;12.38;;;7.68;;
44558;SDS011;30270;40.238;18.256;2022-10-18T15:45:57;11.27;;;7.07;;
44558;SDS011;30270;40.238;18.256;2022-10-18T15:54:18;11.90;;;8.52;;
44558;SDS011;30270;40.238;18.256;2022-10-18T15:56:56;16.75;;;9.27;;
44558;SDS011;30270;40.238;18.256;2022-10-18T15:59:25;15.45;;;10.27;;
44558;SDS011;30270;40.238;18.256;2022-10-18T16:01:58;16.13;;;8.73;;
44558;SDS011;30270;40.238;18.256;2022-10-18T16:04:31;14.60;;;9.25;;
44558;SDS011;30270;40.238;18.256;2022-10-18T16:06:59;15.93;;;10.05;;
44558;SDS011;30270;40.238;18.256;2022-10-18T16:09:28;16.27;;;9.50;;
44558;SDS011;30270;40.238;18.256;2022-10-18T16:11:55;14.63;;;9.85;;
44558;SDS011;30270;40.238;18.256;2022-10-18T16:14:24;21.35;;;11.07;;
44558;SDS011;30270;40.238;18.256;2022-10-18T16:16:54;23.15;;;13.48;;
44558;SDS011;30270;40.238;18.256;2022-10-18T16:19:29;17.33;;;11.77;;
44558;SDS011;30270;40.238;18.256;2022-10-18T16:21:58;17.33;;;11.88;;
44558;SDS011;30270;40.238;18.256;2022-10-18T16:24:29;18.40;;;12.80;;
44558;SDS011;30270;40.238;18.256;2022-10-18T16:26:57;18.80;;;12.43;;
44558;SDS011;30270;40.238;18.256;2022-10-18T16:29:25;23.65;;;13.65;;
44558;SDS011;30270;40.238;18.256;2022-10-18T16:31:58;19.92;;;13.90;;
44558;SDS011;30270;40.238;18.256;2022-10-18T16:34:27;22.40;;;14.82;;
44558;SDS011;30270;40.238;18.256;2022-10-18T16:36:55;24.67;;;15.27;;
44558;SDS011;30270;40.238;18.256;2022-10-18T16:39:23;22.70;;;15.07;;
44558;SDS011;30270;40.238;18.256;2022-10-18T16:41:51;23.25;;;14.68;;
44558;SDS011;30270;40.238;18.256;2022-10-18T16:44:18;25.38;;;14.02;;
44558;SDS011;30270;40.238;18.256;2022-10-18T16:46:46;22.00;;;14.80;;
44558;SDS011;30270;40.238;18.256;2022-10-18T16:49:18;25.52;;;16.45;;
44558;SDS011;30270;40.238;18.256;2022-10-18T16:51:50;28.25;;;17.25;;
44558;SDS011;30270;40.238;18.256;2022-10-18T16:54:19;24.02;;;14.45;;
44558;SDS011;30270;40.238;18.256;2022-10-18T16:56:47;27.63;;;17.33;;
44558;SDS011;30270;40.238;18.256;2022-10-18T16:59:23;24.67;;;15.40;;
44558;SDS011;30270;40.238;18.256;2022-10-18T17:01:54;29.88;;;18.38;;
44558;SDS011;30270;40.238;18.256;2022-10-18T17:04:22;24.92;;;15.85;;
44558;SDS011;30270;40.238;18.256;2022-10-18T17:06:50;27.80;;;18.50;;
44558;SDS011;30270;40.238;18.256;2022-10-18T17:09:20;27.70;;;17.45;;
44558;SDS011;30270;40.238;18.256;2022-10-18T17:11:48;25.73;;;17.48;;
44558;SDS011;30270;40.238;18.256;2022-10-18T17:14:16;27.83;;;18.98;;
44558;SDS011;30270;40.238;18.256;2022-10-18T17:16:44;31.17;;;16.98;;
44558;SDS011;30270;40.238;18.256;2022-10-18T17:19:12;27.73;;;18.35;;
44558;SDS011;30270;40.238;18.256;2022-10-18T17:21:40;34.92;;;17.95;;
44558;SDS011;30270;40.238;18.256;2022-10-18T17:24:08;27.77;;;17.85;;
44558;SDS011;30270;40.238;18.256;2022-10-18T17:26:36;29.13;;;17.98;;
44558;SDS011;30270;40.238;18.256;2022-10-18T17:29:05;27.33;;;16.10;;
44558;SDS011;30270;40.238;18.256;2022-10-18T17:31:35;24.25;;;17.02;;
44558;SDS011;30270;40.238;18.256;2022-10-18T17:34:03;35.17;;;17.88;;
44558;SDS011;30270;40.238;18.256;2022-10-18T17:36:32;29.48;;;19.13;;
44558;SDS011;30270;40.238;18.256;2022-10-18T17:39:00;35.42;;;18.13;;
44558;SDS011;30270;40.238;18.256;2022-10-18T17:41:28;31.70;;;18.85;;